sensor_id;sensor_type;location;lat;lon;timestamp;temperature;humidity
11491;DHT22;5802;52.832;4.758;2023-09-12T00:00:09;26.10;61.30
11491;DHT22;5802;52.832;4.758;2023-09-12T00:02:37;26.10;61.30
11491;DHT22;5802;52.832;4.758;2023-09-12T00:05:04;26.10;61.40
11491;DHT22;5802;52.832;4.758;2023-09-12T00:07:31;26.10;61.40
11491;DHT22;5802;52.832;4.758;2023-09-12T00:09:58;26.10;61.40
11491;DHT22;5802;52.832;4.758;2023-09-12T00:12:25;26.10;61.40
11491;DHT22;5802;52.832;4.758;2023-09-12T00:14:51;26.10;61.40
11491;DHT22;5802;52.832;4.758;2023-09-12T00:17:19;26.10;61.40
11491;DHT22;5802;52.832;4.758;2023-09-12T00:19:46;26.10;61.40
11491;DHT22;5802;52.832;4.758;2023-09-12T00:22:13;26.00;61.30
11491;DHT22;5802;52.832;4.758;2023-09-12T00:24:39;26.10;61.40
11491;DHT22;5802;52.832;4.758;2023-09-12T00:27:06;26.10;61.40
11491;DHT22;5802;52.832;4.758;2023-09-12T00:29:33;26.10;61.40
11491;DHT22;5802;52.832;4.758;2023-09-12T00:31:59;26.10;61.40
11491;DHT22;5802;52.832;4.758;2023-09-12T00:34:27;26.00;61.30
11491;DHT22;5802;52.832;4.758;2023-09-12T00:36:54;26.00;61.40
11491;DHT22;5802;52.832;4.758;2023-09-12T00:39:20;26.00;61.40
11491;DHT22;5802;52.832;4.758;2023-09-12T00:41:47;26.00;61.40
11491;DHT22;5802;52.832;4.758;2023-09-12T00:44:14;26.00;61.40
11491;DHT22;5802;52.832;4.758;2023-09-12T00:46:40;26.00;61.40
11491;DHT22;5802;52.832;4.758;2023-09-12T00:49:07;26.00;61.40
11491;DHT22;5802;52.832;4.758;2023-09-12T00:51:36;26.00;61.40
11491;DHT22;5802;52.832;4.758;2023-09-12T00:54:03;26.00;61.40
11491;DHT22;5802;52.832;4.758;2023-09-12T00:56:30;26.00;61.40
11491;DHT22;5802;52.832;4.758;2023-09-12T00:58:57;26.00;61.50
11491;DHT22;5802;52.832;4.758;2023-09-12T01:01:24;26.00;61.50
11491;DHT22;5802;52.832;4.758;2023-09-12T01:03:50;26.00;61.40
11491;DHT22;5802;52.832;4.758;2023-09-12T01:06:19;26.00;61.50
11491;DHT22;5802;52.832;4.758;2023-09-12T01:08:48;26.00;61.50
11491;DHT22;5802;52.832;4.758;2023-09-12T01:11:16;25.90;61.30
11491;DHT22;5802;52.832;4.758;2023-09-12T01:13:43;25.90;61.40
11491;DHT22;5802;52.832;4.758;2023-09-12T01:16:10;25.90;61.40
11491;DHT22;5802;52.832;4.758;2023-09-12T01:18:37;25.90;61.40
11491;DHT22;5802;52.832;4.758;2023-09-12T01:21:34;25.90;61.40
11491;DHT22;5802;52.832;4.758;2023-09-12T01:24:27;25.90;61.40
11491;DHT22;5802;52.832;4.758;2023-09-12T01:29:33;25.90;61.50
11491;DHT22;5802;52.832;4.758;2023-09-12T01:32:01;25.90;61.50
11491;DHT22;5802;52.832;4.758;2023-09-12T01:34:29;25.90;61.50
11491;DHT22;5802;52.832;4.758;2023-09-12T01:36:56;25.90;61.40
11491;DHT22;5802;52.832;4.758;2023-09-12T01:39:23;25.90;61.40
11491;DHT22;5802;52.832;4.758;2023-09-12T01:41:50;25.90;61.40
11491;DHT22;5802;52.832;4.758;2023-09-12T01:44:20;25.80;61.30
11491;DHT22;5802;52.832;4.758;2023-09-12T01:46:49;25.80;61.40
11491;DHT22;5802;52.832;4.758;2023-09-12T01:49:20;25.80;61.40
11491;DHT22;5802;52.832;4.758;2023-09-12T01:51:48;25.80;61.40
11491;DHT22;5802;52.832;4.758;2023-09-12T01:54:15;25.80;61.30
11491;DHT22;5802;52.832;4.758;2023-09-12T01:56:42;25.80;61.30
11491;DHT22;5802;52.832;4.758;2023-09-12T01:59:09;25.80;61.30
11491;DHT22;5802;52.832;4.758;2023-09-12T02:01:37;25.80;61.40
11491;DHT22;5802;52.832;4.758;2023-09-12T02:04:05;25.80;61.30
11491;DHT22;5802;52.832;4.758;2023-09-12T02:06:34;25.80;61.30
11491;DHT22;5802;52.832;4.758;2023-09-12T02:09:00;25.80;61.30
11491;DHT22;5802;52.832;4.758;2023-09-12T02:11:27;25.80;61.30
11491;DHT22;5802;52.832;4.758;2023-09-12T02:13:54;25.80;61.30
11491;DHT22;5802;52.832;4.758;2023-09-12T02:16:21;25.80;61.30
11491;DHT22;5802;52.832;4.758;2023-09-12T02:18:47;25.80;61.40
11491;DHT22;5802;52.832;4.758;2023-09-12T02:21:16;25.80;61.30
11491;DHT22;5802;52.832;4.758;2023-09-12T02:23:42;25.80;61.30
11491;DHT22;5802;52.832;4.758;2023-09-12T02:26:09;25.80;61.30
11491;DHT22;5802;52.832;4.758;2023-09-12T02:28:35;25.80;61.30
11491;DHT22;5802;52.832;4.758;2023-09-12T02:31:02;25.80;61.40
11491;DHT22;5802;52.832;4.758;2023-09-12T02:33:29;25.80;61.30
11491;DHT22;5802;52.832;4.758;2023-09-12T02:35:55;25.80;61.30
11491;DHT22;5802;52.832;4.758;2023-09-12T02:38:23;25.80;61.30
11491;DHT22;5802;52.832;4.758;2023-09-12T02:40:50;25.70;61.30
11491;DHT22;5802;52.832;4.758;2023-09-12T02:43:17;25.70;61.20
11491;DHT22;5802;52.832;4.758;2023-09-12T02:45:45;25.70;61.20
11491;DHT22;5802;52.832;4.758;2023-09-12T02:48:11;25.70;61.20
11491;DHT22;5802;52.832;4.758;2023-09-12T02:50:38;25.70;61.20
11491;DHT22;5802;52.832;4.758;2023-09-12T02:53:05;25.70;61.30
11491;DHT22;5802;52.832;4.758;2023-09-12T02:55:33;25.70;61.30
11491;DHT22;5802;52.832;4.758;2023-09-12T02:57:59;25.70;61.30
11491;DHT22;5802;52.832;4.758;2023-09-12T03:00:26;25.70;61.30
11491;DHT22;5802;52.832;4.758;2023-09-12T03:02:53;25.70;62.00
11491;DHT22;5802;52.832;4.758;2023-09-12T03:05:19;25.70;61.30
11491;DHT22;5802;52.832;4.758;2023-09-12T03:07:46;25.70;61.30
11491;DHT22;5802;52.832;4.758;2023-09-12T03:10:13;25.70;61.30
11491;DHT22;5802;52.832;4.758;2023-09-12T03:12:41;25.70;62.00
11491;DHT22;5802;52.832;4.758;2023-09-12T03:15:09;25.70;61.30
11491;DHT22;5802;52.832;4.758;2023-09-12T03:17:36;25.70;61.30
11491;DHT22;5802;52.832;4.758;2023-09-12T03:20:03;25.70;61.30
11491;DHT22;5802;52.832;4.758;2023-09-12T03:22:32;25.60;61.20
11491;DHT22;5802;52.832;4.758;2023-09-12T03:25:03;25.60;61.20
11491;DHT22;5802;52.832;4.758;2023-09-12T03:27:29;25.60;61.20
11491;DHT22;5802;52.832;4.758;2023-09-12T03:29:57;25.60;61.20
11491;DHT22;5802;52.832;4.758;2023-09-12T03:32:24;25.60;61.20
11491;DHT22;5802;52.832;4.758;2023-09-12T03:34:51;25.60;61.20
11491;DHT22;5802;52.832;4.758;2023-09-12T03:37:18;25.60;61.20
11491;DHT22;5802;52.832;4.758;2023-09-12T03:39:44;25.60;61.20
11491;DHT22;5802;52.832;4.758;2023-09-12T03:42:11;25.60;61.20
11491;DHT22;5802;52.832;4.758;2023-09-12T03:44:38;25.60;61.20
11491;DHT22;5802;52.832;4.758;2023-09-12T03:47:06;25.60;61.20
11491;DHT22;5802;52.832;4.758;2023-09-12T03:49:33;25.60;61.20
11491;DHT22;5802;52.832;4.758;2023-09-12T03:51:59;25.60;61.20
11491;DHT22;5802;52.832;4.758;2023-09-12T03:54:26;25.60;61.30
11491;DHT22;5802;52.832;4.758;2023-09-12T03:56:53;25.60;61.20
11491;DHT22;5802;52.832;4.758;2023-09-12T03:59:20;25.60;61.20
11491;DHT22;5802;52.832;4.758;2023-09-12T04:01:46;25.60;61.30
11491;DHT22;5802;52.832;4.758;2023-09-12T04:04:14;25.60;61.20
11491;DHT22;5802;52.832;4.758;2023-09-12T04:06:41;25.60;61.20
11491;DHT22;5802;52.832;4.758;2023-09-12T04:09:07;25.60;61.20
11491;DHT22;5802;52.832;4.758;2023-09-12T04:11:34;25.60;61.30
11491;DHT22;5802;52.832;4.758;2023-09-12T04:14:01;25.60;61.30
11491;DHT22;5802;52.832;4.758;2023-09-12T04:16:27;25.60;61.30
11491;DHT22;5802;52.832;4.758;2023-09-12T04:18:54;25.50;61.40
11491;DHT22;5802;52.832;4.758;2023-09-12T04:21:22;25.50;61.40
11491;DHT22;5802;52.832;4.758;2023-09-12T04:23:49;25.50;61.40
11491;DHT22;5802;52.832;4.758;2023-09-12T04:26:16;25.50;61.40
11491;DHT22;5802;52.832;4.758;2023-09-12T04:28:42;25.50;61.40
11491;DHT22;5802;52.832;4.758;2023-09-12T04:31:09;25.50;61.40
11491;DHT22;5802;52.832;4.758;2023-09-12T04:33:36;25.50;61.40
11491;DHT22;5802;52.832;4.758;2023-09-12T04:36:03;25.50;61.50
11491;DHT22;5802;52.832;4.758;2023-09-12T04:38:31;25.50;61.50
11491;DHT22;5802;52.832;4.758;2023-09-12T04:41:02;25.50;61.40
11491;DHT22;5802;52.832;4.758;2023-09-12T04:43:30;25.50;61.50
11491;DHT22;5802;52.832;4.758;2023-09-12T04:45:57;25.50;61.50
11491;DHT22;5802;52.832;4.758;2023-09-12T04:48:23;25.50;62.30
11491;DHT22;5802;52.832;4.758;2023-09-12T04:50:50;25.50;61.50
11491;DHT22;5802;52.832;4.758;2023-09-12T04:53:17;25.50;61.50
11491;DHT22;5802;52.832;4.758;2023-09-12T04:55:45;25.50;61.50
11491;DHT22;5802;52.832;4.758;2023-09-12T04:58:11;25.50;61.50
11491;DHT22;5802;52.832;4.758;2023-09-12T05:00:39;25.50;61.50
11491;DHT22;5802;52.832;4.758;2023-09-12T05:03:06;25.50;61.50
11491;DHT22;5802;52.832;4.758;2023-09-12T05:05:34;25.40;61.40
11491;DHT22;5802;52.832;4.758;2023-09-12T05:08:01;25.40;61.40
11491;DHT22;5802;52.832;4.758;2023-09-12T05:10:29;25.40;61.40
11491;DHT22;5802;52.832;4.758;2023-09-12T05:12:57;25.40;61.40
11491;DHT22;5802;52.832;4.758;2023-09-12T05:15:23;25.40;61.40
11491;DHT22;5802;52.832;4.758;2023-09-12T05:17:50;25.40;61.40
11491;DHT22;5802;52.832;4.758;2023-09-12T05:20:17;25.40;61.40
11491;DHT22;5802;52.832;4.758;2023-09-12T05:22:43;25.40;61.40
11491;DHT22;5802;52.832;4.758;2023-09-12T05:25:10;25.40;61.40
11491;DHT22;5802;52.832;4.758;2023-09-12T05:27:37;25.40;61.40
11491;DHT22;5802;52.832;4.758;2023-09-12T05:30:06;25.40;61.40
11491;DHT22;5802;52.832;4.758;2023-09-12T05:32:33;25.40;61.40
11491;DHT22;5802;52.832;4.758;2023-09-12T05:34:59;25.40;61.40
11491;DHT22;5802;52.832;4.758;2023-09-12T05:37:26;25.40;61.40
11491;DHT22;5802;52.832;4.758;2023-09-12T05:39:54;25.40;61.40
11491;DHT22;5802;52.832;4.758;2023-09-12T05:42:20;25.40;61.40
11491;DHT22;5802;52.832;4.758;2023-09-12T05:44:47;25.40;61.40
11491;DHT22;5802;52.832;4.758;2023-09-12T05:47:16;25.40;61.40
11491;DHT22;5802;52.832;4.758;2023-09-12T05:49:43;25.40;61.50
11491;DHT22;5802;52.832;4.758;2023-09-12T05:52:10;25.40;61.50
11491;DHT22;5802;52.832;4.758;2023-09-12T05:54:36;25.40;61.40
11491;DHT22;5802;52.832;4.758;2023-09-12T05:57:03;25.40;61.40
11491;DHT22;5802;52.832;4.758;2023-09-12T05:59:30;25.40;61.40
11491;DHT22;5802;52.832;4.758;2023-09-12T06:01:57;25.40;61.40
11491;DHT22;5802;52.832;4.758;2023-09-12T06:04:25;25.30;61.40
11491;DHT22;5802;52.832;4.758;2023-09-12T06:06:51;25.30;61.40
11491;DHT22;5802;52.832;4.758;2023-09-12T06:09:18;25.30;61.40
11491;DHT22;5802;52.832;4.758;2023-09-12T06:11:44;25.30;61.40
11491;DHT22;5802;52.832;4.758;2023-09-12T06:14:11;25.30;61.40
11491;DHT22;5802;52.832;4.758;2023-09-12T06:16:38;25.30;61.40
11491;DHT22;5802;52.832;4.758;2023-09-12T06:19:04;25.30;61.40
11491;DHT22;5802;52.832;4.758;2023-09-12T06:21:32;25.30;61.40
11491;DHT22;5802;52.832;4.758;2023-09-12T06:24:10;25.30;61.50
11491;DHT22;5802;52.832;4.758;2023-09-12T06:26:37;25.30;61.40
11491;DHT22;5802;52.832;4.758;2023-09-12T06:29:04;25.30;61.40
11491;DHT22;5802;52.832;4.758;2023-09-12T06:31:32;25.30;61.40
11491;DHT22;5802;52.832;4.758;2023-09-12T06:33:58;25.30;61.50
11491;DHT22;5802;52.832;4.758;2023-09-12T06:36:25;25.30;61.50
11491;DHT22;5802;52.832;4.758;2023-09-12T06:38:56;25.30;61.50
11491;DHT22;5802;52.832;4.758;2023-09-12T06:41:22;25.30;61.50
11491;DHT22;5802;52.832;4.758;2023-09-12T06:43:49;25.30;61.50
11491;DHT22;5802;52.832;4.758;2023-09-12T06:46:16;25.30;61.50
11491;DHT22;5802;52.832;4.758;2023-09-12T06:48:43;25.30;61.50
11491;DHT22;5802;52.832;4.758;2023-09-12T06:51:10;25.30;61.50
11491;DHT22;5802;52.832;4.758;2023-09-12T06:53:37;25.30;61.50
11491;DHT22;5802;52.832;4.758;2023-09-12T06:56:05;25.30;61.50
11491;DHT22;5802;52.832;4.758;2023-09-12T06:58:32;25.30;61.50
11491;DHT22;5802;52.832;4.758;2023-09-12T07:01:02;25.30;61.50
11491;DHT22;5802;52.832;4.758;2023-09-12T07:03:29;25.30;61.50
11491;DHT22;5802;52.832;4.758;2023-09-12T07:05:56;25.30;61.50
11491;DHT22;5802;52.832;4.758;2023-09-12T07:08:22;25.30;62.20
11491;DHT22;5802;52.832;4.758;2023-09-12T07:10:49;25.30;61.50
11491;DHT22;5802;52.832;4.758;2023-09-12T07:13:17;25.30;61.50
11491;DHT22;5802;52.832;4.758;2023-09-12T07:15:44;25.30;61.50
11491;DHT22;5802;52.832;4.758;2023-09-12T07:18:11;25.40;61.60
11491;DHT22;5802;52.832;4.758;2023-09-12T07:20:37;25.40;61.50
11491;DHT22;5802;52.832;4.758;2023-09-12T07:23:04;25.40;61.50
11491;DHT22;5802;52.832;4.758;2023-09-12T07:25:30;25.40;61.40
11491;DHT22;5802;52.832;4.758;2023-09-12T07:28:01;25.50;61.40
11491;DHT22;5802;52.832;4.758;2023-09-12T07:30:30;25.50;61.40
11491;DHT22;5802;52.832;4.758;2023-09-12T07:32:57;25.50;61.40
11491;DHT22;5802;52.832;4.758;2023-09-12T07:35:24;25.60;61.40
11491;DHT22;5802;52.832;4.758;2023-09-12T07:37:50;25.60;61.40
11491;DHT22;5802;52.832;4.758;2023-09-12T07:40:17;25.60;61.30
11491;DHT22;5802;52.832;4.758;2023-09-12T07:42:44;25.60;61.20
11491;DHT22;5802;52.832;4.758;2023-09-12T07:45:10;25.60;62.00
11491;DHT22;5802;52.832;4.758;2023-09-12T07:47:40;25.70;61.30
11491;DHT22;5802;52.832;4.758;2023-09-12T07:50:07;25.70;61.20
11491;DHT22;5802;52.832;4.758;2023-09-12T07:52:34;25.70;61.20
11491;DHT22;5802;52.832;4.758;2023-09-12T07:55:01;25.80;61.10
11491;DHT22;5802;52.832;4.758;2023-09-12T07:57:28;25.80;61.10
11491;DHT22;5802;52.832;4.758;2023-09-12T07:59:55;25.80;61.10
11491;DHT22;5802;52.832;4.758;2023-09-12T08:02:22;25.80;61.10
11491;DHT22;5802;52.832;4.758;2023-09-12T08:04:50;25.80;61.00
11491;DHT22;5802;52.832;4.758;2023-09-12T08:07:19;25.80;61.00
11491;DHT22;5802;52.832;4.758;2023-09-12T08:09:50;25.80;61.00
11491;DHT22;5802;52.832;4.758;2023-09-12T08:12:17;25.80;61.00
11491;DHT22;5802;52.832;4.758;2023-09-12T08:14:43;25.80;61.00
11491;DHT22;5802;52.832;4.758;2023-09-12T08:17:11;25.80;60.90
11491;DHT22;5802;52.832;4.758;2023-09-12T08:19:38;25.80;61.00
11491;DHT22;5802;52.832;4.758;2023-09-12T08:22:07;25.90;61.10
11491;DHT22;5802;52.832;4.758;2023-09-12T08:24:34;25.80;60.90
11491;DHT22;5802;52.832;4.758;2023-09-12T08:27:01;25.90;61.00
11491;DHT22;5802;52.832;4.758;2023-09-12T08:29:28;25.90;61.00
11491;DHT22;5802;52.832;4.758;2023-09-12T08:31:55;25.90;61.00
11491;DHT22;5802;52.832;4.758;2023-09-12T08:34:21;25.90;60.90
11491;DHT22;5802;52.832;4.758;2023-09-12T08:36:48;25.90;60.90
11491;DHT22;5802;52.832;4.758;2023-09-12T08:39:17;25.90;60.90
11491;DHT22;5802;52.832;4.758;2023-09-12T08:41:44;25.90;60.90
11491;DHT22;5802;52.832;4.758;2023-09-12T08:44:12;25.90;60.90
11491;DHT22;5802;52.832;4.758;2023-09-12T08:46:41;25.90;60.80
11491;DHT22;5802;52.832;4.758;2023-09-12T08:49:08;25.90;60.90
11491;DHT22;5802;52.832;4.758;2023-09-12T08:51:35;25.90;60.80
11491;DHT22;5802;52.832;4.758;2023-09-12T08:54:02;25.90;60.80
11491;DHT22;5802;52.832;4.758;2023-09-12T08:56:31;25.90;60.80
11491;DHT22;5802;52.832;4.758;2023-09-12T08:58:59;25.90;60.80
11491;DHT22;5802;52.832;4.758;2023-09-12T09:01:26;26.00;61.00
11491;DHT22;5802;52.832;4.758;2023-09-12T09:03:57;26.00;60.80
11491;DHT22;5802;52.832;4.758;2023-09-12T09:06:25;26.00;60.80
11491;DHT22;5802;52.832;4.758;2023-09-12T09:08:52;26.00;60.80
11491;DHT22;5802;52.832;4.758;2023-09-12T09:11:19;26.00;60.70
11491;DHT22;5802;52.832;4.758;2023-09-12T09:13:48;26.00;60.80
11491;DHT22;5802;52.832;4.758;2023-09-12T09:16:16;26.00;60.80
11491;DHT22;5802;52.832;4.758;2023-09-12T09:18:51;26.00;60.70
11491;DHT22;5802;52.832;4.758;2023-09-12T09:21:19;26.00;60.60
11491;DHT22;5802;52.832;4.758;2023-09-12T09:23:46;26.10;60.70
11491;DHT22;5802;52.832;4.758;2023-09-12T09:26:13;26.00;60.70
11491;DHT22;5802;52.832;4.758;2023-09-12T09:28:40;26.10;60.70
11491;DHT22;5802;52.832;4.758;2023-09-12T09:31:12;26.10;60.60
11491;DHT22;5802;52.832;4.758;2023-09-12T09:33:39;26.10;60.60
11491;DHT22;5802;52.832;4.758;2023-09-12T09:36:08;26.10;60.60
11491;DHT22;5802;52.832;4.758;2023-09-12T09:38:35;26.10;60.60
11491;DHT22;5802;52.832;4.758;2023-09-12T09:41:04;26.10;60.50
11491;DHT22;5802;52.832;4.758;2023-09-12T09:43:31;26.10;60.60
11491;DHT22;5802;52.832;4.758;2023-09-12T09:45:58;26.10;60.60
11491;DHT22;5802;52.832;4.758;2023-09-12T09:48:26;26.10;60.50
11491;DHT22;5802;52.832;4.758;2023-09-12T09:51:00;26.10;60.60
11491;DHT22;5802;52.832;4.758;2023-09-12T09:53:28;26.10;60.60
11491;DHT22;5802;52.832;4.758;2023-09-12T09:56:08;26.10;60.10
11491;DHT22;5802;52.832;4.758;2023-09-12T09:58:35;26.10;60.70
11491;DHT22;5802;52.832;4.758;2023-09-12T10:01:02;26.10;60.80
11491;DHT22;5802;52.832;4.758;2023-09-12T10:03:32;26.10;61.50
11491;DHT22;5802;52.832;4.758;2023-09-12T10:06:04;26.10;60.70
11491;DHT22;5802;52.832;4.758;2023-09-12T10:08:32;26.10;60.70
11491;DHT22;5802;52.832;4.758;2023-09-12T10:11:00;26.10;60.70
11491;DHT22;5802;52.832;4.758;2023-09-12T10:13:27;26.20;60.80
11491;DHT22;5802;52.832;4.758;2023-09-12T10:15:58;26.20;60.80
11491;DHT22;5802;52.832;4.758;2023-09-12T10:18:31;26.20;60.80
11491;DHT22;5802;52.832;4.758;2023-09-12T10:21:07;26.20;60.80
11491;DHT22;5802;52.832;4.758;2023-09-12T10:23:38;26.20;60.70
11491;DHT22;5802;52.832;4.758;2023-09-12T10:26:10;26.20;60.80
11491;DHT22;5802;52.832;4.758;2023-09-12T10:28:38;26.20;60.80
11491;DHT22;5802;52.832;4.758;2023-09-12T10:31:07;26.20;60.90
11491;DHT22;5802;52.832;4.758;2023-09-12T10:33:36;26.20;61.10
11491;DHT22;5802;52.832;4.758;2023-09-12T10:36:03;26.20;61.30
11491;DHT22;5802;52.832;4.758;2023-09-12T10:38:30;26.20;61.70
11491;DHT22;5802;52.832;4.758;2023-09-12T10:41:00;26.20;61.90
11491;DHT22;5802;52.832;4.758;2023-09-12T10:43:28;26.20;62.20
11491;DHT22;5802;52.832;4.758;2023-09-12T10:45:56;26.20;62.50
11491;DHT22;5802;52.832;4.758;2023-09-12T10:48:25;26.20;62.90
11491;DHT22;5802;52.832;4.758;2023-09-12T10:50:53;26.30;63.20
11491;DHT22;5802;52.832;4.758;2023-09-12T10:53:23;26.30;63.30
11491;DHT22;5802;52.832;4.758;2023-09-12T10:56:15;26.30;63.20
11491;DHT22;5802;52.832;4.758;2023-09-12T10:59:10;26.30;63.10
11491;DHT22;5802;52.832;4.758;2023-09-12T11:01:38;26.30;62.90
11491;DHT22;5802;52.832;4.758;2023-09-12T11:04:30;26.30;62.80
11491;DHT22;5802;52.832;4.758;2023-09-12T11:07:00;26.30;62.70
11491;DHT22;5802;52.832;4.758;2023-09-12T11:09:27;26.30;62.60
11491;DHT22;5802;52.832;4.758;2023-09-12T11:11:59;26.30;62.40
11491;DHT22;5802;52.832;4.758;2023-09-12T11:14:28;26.30;62.30
11491;DHT22;5802;52.832;4.758;2023-09-12T11:17:20;26.40;62.30
11491;DHT22;5802;52.832;4.758;2023-09-12T11:19:49;26.40;62.20
11491;DHT22;5802;52.832;4.758;2023-09-12T11:22:24;26.40;62.10
11491;DHT22;5802;52.832;4.758;2023-09-12T11:24:51;26.40;62.10
11491;DHT22;5802;52.832;4.758;2023-09-12T11:27:18;26.40;62.00
11491;DHT22;5802;52.832;4.758;2023-09-12T11:29:45;26.40;61.90
11491;DHT22;5802;52.832;4.758;2023-09-12T11:32:25;26.40;61.80
11491;DHT22;5802;52.832;4.758;2023-09-12T11:34:52;26.50;61.80
11491;DHT22;5802;52.832;4.758;2023-09-12T11:37:24;26.50;61.80
11491;DHT22;5802;52.832;4.758;2023-09-12T11:39:51;26.50;61.80
11491;DHT22;5802;52.832;4.758;2023-09-12T11:42:19;26.50;61.80
11491;DHT22;5802;52.832;4.758;2023-09-12T11:44:48;26.50;61.80
11491;DHT22;5802;52.832;4.758;2023-09-12T11:47:15;26.50;61.70
11491;DHT22;5802;52.832;4.758;2023-09-12T11:49:42;26.50;61.60
11491;DHT22;5802;52.832;4.758;2023-09-12T11:52:10;26.50;61.50
11491;DHT22;5802;52.832;4.758;2023-09-12T11:54:39;26.50;61.40
11491;DHT22;5802;52.832;4.758;2023-09-12T11:57:07;26.50;61.40
11491;DHT22;5802;52.832;4.758;2023-09-12T11:59:37;26.50;61.40
11491;DHT22;5802;52.832;4.758;2023-09-12T12:02:06;26.50;61.40
11491;DHT22;5802;52.832;4.758;2023-09-12T12:04:33;26.50;61.30
11491;DHT22;5802;52.832;4.758;2023-09-12T12:07:01;26.50;61.30
11491;DHT22;5802;52.832;4.758;2023-09-12T12:09:29;26.50;61.30
11491;DHT22;5802;52.832;4.758;2023-09-12T12:12:03;26.50;61.20
11491;DHT22;5802;52.832;4.758;2023-09-12T12:14:33;26.60;61.30
11491;DHT22;5802;52.832;4.758;2023-09-12T12:17:06;26.60;61.30
11491;DHT22;5802;52.832;4.758;2023-09-12T12:19:33;26.60;61.30
11491;DHT22;5802;52.832;4.758;2023-09-12T12:21:59;26.60;61.20
11491;DHT22;5802;52.832;4.758;2023-09-12T12:24:36;26.60;61.20
11491;DHT22;5802;52.832;4.758;2023-09-12T12:27:05;26.60;61.10
11491;DHT22;5802;52.832;4.758;2023-09-12T12:29:33;26.60;61.00
11491;DHT22;5802;52.832;4.758;2023-09-12T12:32:00;26.60;61.80
11491;DHT22;5802;52.832;4.758;2023-09-12T12:34:27;26.70;61.00
11491;DHT22;5802;52.832;4.758;2023-09-12T12:36:54;26.70;61.00
11491;DHT22;5802;52.832;4.758;2023-09-12T12:39:20;26.70;61.00
11491;DHT22;5802;52.832;4.758;2023-09-12T12:41:48;26.70;60.80
11491;DHT22;5802;52.832;4.758;2023-09-12T12:44:16;26.70;60.80
11491;DHT22;5802;52.832;4.758;2023-09-12T12:46:49;26.70;60.70
11491;DHT22;5802;52.832;4.758;2023-09-12T12:49:17;26.80;60.80
11491;DHT22;5802;52.832;4.758;2023-09-12T12:51:45;26.80;60.80
11491;DHT22;5802;52.832;4.758;2023-09-12T12:54:12;26.70;60.60
11491;DHT22;5802;52.832;4.758;2023-09-12T12:56:39;26.70;60.60
11491;DHT22;5802;52.832;4.758;2023-09-12T12:59:07;26.80;60.60
11491;DHT22;5802;52.832;4.758;2023-09-12T13:01:37;26.80;60.70
11491;DHT22;5802;52.832;4.758;2023-09-12T13:04:05;26.80;60.70
11491;DHT22;5802;52.832;4.758;2023-09-12T13:06:33;26.80;60.70
11491;DHT22;5802;52.832;4.758;2023-09-12T13:09:01;26.80;60.60
11491;DHT22;5802;52.832;4.758;2023-09-12T13:11:31;26.80;60.60
11491;DHT22;5802;52.832;4.758;2023-09-12T13:13:58;26.80;60.60
11491;DHT22;5802;52.832;4.758;2023-09-12T13:16:25;26.80;60.60
11491;DHT22;5802;52.832;4.758;2023-09-12T13:18:53;26.80;60.60
11491;DHT22;5802;52.832;4.758;2023-09-12T13:21:20;26.80;60.60
11491;DHT22;5802;52.832;4.758;2023-09-12T13:23:46;26.80;60.70
11491;DHT22;5802;52.832;4.758;2023-09-12T13:26:13;26.80;60.60
11491;DHT22;5802;52.832;4.758;2023-09-12T13:28:40;26.80;60.60
11491;DHT22;5802;52.832;4.758;2023-09-12T13:31:07;26.90;60.60
11491;DHT22;5802;52.832;4.758;2023-09-12T13:33:34;26.80;60.50
11491;DHT22;5802;52.832;4.758;2023-09-12T13:36:02;26.80;60.50
11491;DHT22;5802;52.832;4.758;2023-09-12T13:38:29;26.80;60.40
11491;DHT22;5802;52.832;4.758;2023-09-12T13:40:55;26.80;60.30
11491;DHT22;5802;52.832;4.758;2023-09-12T13:43:22;26.90;60.40
11491;DHT22;5802;52.832;4.758;2023-09-12T13:45:49;26.80;60.20
11491;DHT22;5802;52.832;4.758;2023-09-12T13:48:16;26.90;60.20
11491;DHT22;5802;52.832;4.758;2023-09-12T13:50:43;26.90;60.20
11491;DHT22;5802;52.832;4.758;2023-09-12T13:53:11;26.90;60.20
11491;DHT22;5802;52.832;4.758;2023-09-12T13:55:38;26.90;60.10
11491;DHT22;5802;52.832;4.758;2023-09-12T13:58:05;26.90;60.10
11491;DHT22;5802;52.832;4.758;2023-09-12T14:00:33;26.90;60.00
11491;DHT22;5802;52.832;4.758;2023-09-12T14:03:00;26.90;59.90
11491;DHT22;5802;52.832;4.758;2023-09-12T14:05:28;26.90;60.00
11491;DHT22;5802;52.832;4.758;2023-09-12T14:07:55;26.90;59.90
11491;DHT22;5802;52.832;4.758;2023-09-12T14:10:23;26.90;59.90
11491;DHT22;5802;52.832;4.758;2023-09-12T14:12:49;26.90;59.90
11491;DHT22;5802;52.832;4.758;2023-09-12T14:15:16;26.90;60.50
11491;DHT22;5802;52.832;4.758;2023-09-12T14:17:42;26.90;59.80
11491;DHT22;5802;52.832;4.758;2023-09-12T14:20:10;26.90;59.70
11491;DHT22;5802;52.832;4.758;2023-09-12T14:22:41;26.90;59.70
11491;DHT22;5802;52.832;4.758;2023-09-12T14:25:10;26.90;59.70
11491;DHT22;5802;52.832;4.758;2023-09-12T14:27:42;26.90;59.70
11491;DHT22;5802;52.832;4.758;2023-09-12T14:30:10;26.90;59.70
11491;DHT22;5802;52.832;4.758;2023-09-12T14:32:38;26.80;59.70
11491;DHT22;5802;52.832;4.758;2023-09-12T14:35:05;26.80;59.60
11491;DHT22;5802;52.832;4.758;2023-09-12T14:37:33;26.90;59.70
11491;DHT22;5802;52.832;4.758;2023-09-12T14:40:12;26.90;59.70
11491;DHT22;5802;52.832;4.758;2023-09-12T14:42:43;26.80;59.60
11491;DHT22;5802;52.832;4.758;2023-09-12T14:45:10;26.80;59.50
11491;DHT22;5802;52.832;4.758;2023-09-12T14:47:37;26.80;59.50
11491;DHT22;5802;52.832;4.758;2023-09-12T14:50:04;26.90;59.50
11491;DHT22;5802;52.832;4.758;2023-09-12T14:52:31;26.90;59.50
11491;DHT22;5802;52.832;4.758;2023-09-12T14:54:59;26.90;59.40
11491;DHT22;5802;52.832;4.758;2023-09-12T14:57:27;26.90;59.40
11491;DHT22;5802;52.832;4.758;2023-09-12T14:59:55;26.90;59.50
11491;DHT22;5802;52.832;4.758;2023-09-12T15:02:23;26.90;59.40
11491;DHT22;5802;52.832;4.758;2023-09-12T15:04:50;26.90;59.40
11491;DHT22;5802;52.832;4.758;2023-09-12T15:07:17;26.80;59.40
11491;DHT22;5802;52.832;4.758;2023-09-12T15:09:44;26.90;59.40
11491;DHT22;5802;52.832;4.758;2023-09-12T15:12:10;26.90;59.40
11491;DHT22;5802;52.832;4.758;2023-09-12T15:14:37;26.90;59.40
11491;DHT22;5802;52.832;4.758;2023-09-12T15:17:08;26.80;59.30
11491;DHT22;5802;52.832;4.758;2023-09-12T15:19:35;26.80;59.30
11491;DHT22;5802;52.832;4.758;2023-09-12T15:22:01;26.80;59.30
11491;DHT22;5802;52.832;4.758;2023-09-12T15:24:28;26.80;59.30
11491;DHT22;5802;52.832;4.758;2023-09-12T15:26:55;26.80;59.30
11491;DHT22;5802;52.832;4.758;2023-09-12T15:29:22;26.80;59.20
11491;DHT22;5802;52.832;4.758;2023-09-12T15:31:54;26.80;59.20
11491;DHT22;5802;52.832;4.758;2023-09-12T15:34:23;26.80;59.20
11491;DHT22;5802;52.832;4.758;2023-09-12T15:37:05;26.80;59.20
11491;DHT22;5802;52.832;4.758;2023-09-12T15:39:32;26.80;59.20
11491;DHT22;5802;52.832;4.758;2023-09-12T15:41:59;26.80;59.20
11491;DHT22;5802;52.832;4.758;2023-09-12T15:44:26;26.80;59.20
11491;DHT22;5802;52.832;4.758;2023-09-12T15:46:54;26.80;59.20
11491;DHT22;5802;52.832;4.758;2023-09-12T15:49:25;26.70;59.20
11491;DHT22;5802;52.832;4.758;2023-09-12T15:51:52;26.70;59.00